Terminal Aerodrome Forecast
Issued by NWS

Home | Current Version | Previous Version | Text Only | Print | Product List | Glossary On
Versions: 1 2 3 4 5 6 7 8 9 10 11 12 13 14 15 16 17 18 19 20 21 22 23 24 25 26 27 28 29 30 31 32 33 34 35 36 37 38 39 40 41 42 43
000
FTUS43 KMKX 300305 AAA
TAFUES
TAF AMD
KUES 300305Z 3003/3024 21004KT P6SM VCSH SCT050 BKN120
     FM300500 22005KT P6SM -SHRA VCTS SCT035CB OVC060
     FM300900 28004KT 5SM -SHRA OVC015
     FM301200 03008KT 5SM -SHRA OVC008
     FM301400 03012G21KT 5SM -SHRA OVC008
     FM301900 03014G23KT P6SM OVC008
     FM302300 04013G23KT P6SM BKN060=

USA.gov is the U.S. government's official web portal to all federal, state and local government web resources and services.